createdAt,value
2019-04-20T00:02:35.839Z,8.27
2019-04-20T00:05:41.401Z,8.83
2019-04-20T00:08:47.676Z,9.17
2019-04-20T00:12:01.557Z,8.83
2019-04-20T00:15:00.664Z,8.57
2019-04-20T00:18:09.790Z,10.70
2019-04-20T00:21:31.548Z,8.70
2019-04-20T00:25:00.468Z,8.73
2019-04-20T00:28:19.842Z,9.10
2019-04-20T00:31:24.845Z,9.17
2019-04-20T00:34:23.039Z,9.80
2019-04-20T00:37:21.191Z,9.43
2019-04-20T00:40:26.214Z,10.13
2019-04-20T00:43:35.683Z,9.40
2019-04-20T00:46:51.284Z,10.13
2019-04-20T00:49:57.907Z,9.70
2019-04-20T00:53:05.712Z,11.43
2019-04-20T00:55:59.088Z,12.23
2019-04-20T00:59:17.204Z,9.40
2019-04-20T01:02:25.710Z,11.60
2019-04-20T01:05:47.904Z,9.70
2019-04-20T01:08:38.115Z,8.93
2019-04-20T01:11:45.473Z,10.00
2019-04-20T01:14:56.869Z,10.27
2019-04-20T01:17:56.391Z,10.03
2019-04-20T01:21:09.983Z,10.33
2019-04-20T01:24:09.834Z,11.00
2019-04-20T01:27:27.403Z,11.80
2019-04-20T01:30:31.586Z,11.50
2019-04-20T01:33:40.230Z,12.00
2019-04-20T01:36:50.498Z,10.77
2019-04-20T01:39:48.377Z,11.33
2019-04-20T01:42:49.089Z,13.70
2019-04-20T01:46:01.320Z,11.70
2019-04-20T01:49:10.519Z,12.97
2019-04-20T01:52:17.312Z,11.33
2019-04-20T01:55:34.642Z,11.90
2019-04-20T01:58:56.471Z,12.67
2019-04-20T02:02:05.229Z,13.63
2019-04-20T02:05:20.676Z,11.80
2019-04-20T02:08:22.957Z,11.70
2019-04-20T02:11:32.727Z,12.50
2019-04-20T02:14:42.527Z,11.50
2019-04-20T02:17:46.596Z,10.77
2019-04-20T02:21:05.148Z,10.40
2019-04-20T02:23:59.370Z,10.80
2019-04-20T02:27:00.319Z,12.30
2019-04-20T02:30:41.458Z,11.53
2019-04-20T02:33:50.558Z,11.50
2019-04-20T02:40:07.237Z,10.53
2019-04-20T02:43:15.689Z,10.43
2019-04-20T02:46:22.515Z,11.30
2019-04-20T02:52:49.227Z,10.00
2019-04-20T02:55:41.725Z,11.53
2019-04-20T02:58:56.229Z,11.03
2019-04-20T03:01:42.029Z,11.30
2019-04-20T03:04:37.063Z,10.47
2019-04-20T03:07:57.702Z,10.53
2019-04-20T03:11:09.297Z,11.20
2019-04-20T03:14:09.271Z,10.63
2019-04-20T03:17:25.682Z,11.30
2019-04-20T03:20:27.093Z,9.63
2019-04-20T03:23:44.413Z,11.67
2019-04-20T03:26:50.101Z,11.70
2019-04-20T03:30:28.706Z,15.00
2019-04-20T03:33:30.929Z,11.97
2019-04-20T03:36:50.030Z,12.83
2019-04-20T03:39:28.484Z,11.73
2019-04-20T03:42:18.040Z,11.07
2019-04-20T03:45:25.382Z,11.33
2019-04-20T03:48:50.769Z,11.60
2019-04-20T03:51:57.417Z,11.40
2019-04-20T03:55:17.094Z,11.50
2019-04-20T03:58:28.784Z,11.00
2019-04-20T04:02:09.297Z,11.40
2019-04-20T04:05:19.332Z,12.83
2019-04-20T04:08:19.192Z,11.77
2019-04-20T04:11:34.059Z,9.77
2019-04-20T04:14:21.870Z,11.27
2019-04-20T04:17:34.973Z,11.93
2019-04-20T04:20:41.854Z,10.93
2019-04-20T04:23:58.912Z,13.13
2019-04-20T04:27:00.794Z,12.00
2019-04-20T04:30:13.007Z,11.50
2019-04-20T04:33:41.507Z,12.70
2019-04-20T04:36:21.309Z,12.93
2019-04-20T04:39:41.780Z,11.40
2019-04-20T04:42:42.676Z,12.20
2019-04-20T04:45:30.493Z,12.17
2019-04-20T04:48:40.316Z,12.43
2019-04-20T04:51:51.452Z,13.67
2019-04-20T04:54:54.327Z,12.83
2019-04-20T04:57:55.743Z,13.60
2019-04-20T05:01:07.731Z,13.10
2019-04-20T05:04:28.173Z,13.17
2019-04-20T05:07:38.853Z,13.50
2019-04-20T05:10:32.971Z,13.50
2019-04-20T05:13:45.928Z,13.43
2019-04-20T05:16:58.217Z,14.77
2019-04-20T05:20:10.319Z,13.83
2019-04-20T05:23:31.972Z,15.07
2019-04-20T05:26:55.433Z,13.30
2019-04-20T05:29:40.827Z,13.63
2019-04-20T05:32:54.777Z,14.00
2019-04-20T05:36:14.166Z,13.57
2019-04-20T05:39:26.950Z,13.80
2019-04-20T05:42:32.151Z,14.43
2019-04-20T05:45:28.612Z,13.30
2019-04-20T05:48:40.964Z,12.13
2019-04-20T05:51:49.846Z,14.17
2019-04-20T05:54:56.183Z,12.63
2019-04-20T05:58:04.760Z,13.80
2019-04-20T06:01:10.868Z,13.67
2019-04-20T06:04:19.508Z,15.07
2019-04-20T06:07:27.131Z,12.93
2019-04-20T06:10:31.890Z,14.50
2019-04-20T06:14:02.390Z,13.20
2019-04-20T06:17:49.295Z,12.77
2019-04-20T06:21:02.341Z,13.67
2019-04-20T06:24:16.949Z,13.53
2019-04-20T06:27:21.495Z,14.37
2019-04-20T06:30:27.390Z,13.30
2019-04-20T06:37:16.069Z,12.53
2019-04-20T06:40:50.511Z,12.30
2019-04-20T06:43:34.918Z,14.23
2019-04-20T06:46:45.801Z,11.50
2019-04-20T06:49:38.006Z,12.33
2019-04-20T06:53:30.318Z,14.33
2019-04-20T06:56:29.806Z,13.57
2019-04-20T06:59:38.662Z,12.03
2019-04-20T07:02:41.199Z,13.40
2019-04-20T07:05:44.749Z,12.63
2019-04-20T07:11:56.822Z,14.67
2019-04-20T07:14:55.461Z,12.77
2019-04-20T07:18:17.260Z,12.07
2019-04-20T07:21:41.775Z,11.07
2019-04-20T07:24:38.422Z,21.07
2019-04-20T07:27:36.746Z,13.47
2019-04-20T07:30:45.165Z,12.93
2019-04-20T07:33:52.099Z,11.80
2019-04-20T07:37:17.722Z,11.37
2019-04-20T07:40:05.964Z,12.03
2019-04-20T07:43:02.860Z,11.57
2019-04-20T07:46:37.641Z,12.13
2019-04-20T07:49:27.425Z,12.30
2019-04-20T07:52:10.327Z,11.80
2019-04-20T07:55:47.531Z,10.53
2019-04-20T07:58:30.487Z,12.60
2019-04-20T08:02:16.142Z,11.93
2019-04-20T08:05:17.804Z,13.10
2019-04-20T08:08:27.168Z,11.77
2019-04-20T08:11:36.683Z,10.07
2019-04-20T08:14:48.073Z,10.60
2019-04-20T08:17:51.457Z,10.80
2019-04-20T08:20:58.117Z,10.67
2019-04-20T08:24:02.905Z,10.30
2019-04-20T08:26:59.017Z,10.10
2019-04-20T08:30:26.790Z,9.70
2019-04-20T08:33:36.202Z,9.23
2019-04-20T08:36:45.408Z,8.80
2019-04-20T08:39:58.343Z,8.17
2019-04-20T08:43:02.376Z,11.10
2019-04-20T08:46:10.372Z,8.10
2019-04-20T08:49:11.355Z,8.77
2019-04-20T08:52:40.621Z,8.23
2019-04-20T08:55:21.310Z,8.73
2019-04-20T08:58:09.418Z,16.23
2019-04-20T09:01:21.556Z,7.80
2019-04-20T09:04:33.739Z,8.80
2019-04-20T09:07:31.699Z,7.03
2019-04-20T09:10:58.824Z,8.60
2019-04-20T09:13:48.005Z,9.73
2019-04-20T09:16:57.025Z,9.60
2019-04-20T09:20:09.614Z,8.33
2019-04-20T09:23:24.634Z,10.03
2019-04-20T09:26:35.463Z,8.63
2019-04-20T09:29:33.356Z,9.60
2019-04-20T09:32:48.749Z,10.03
2019-04-20T09:35:53.375Z,10.30
2019-04-20T09:39:33.799Z,9.77
2019-04-20T09:42:50.642Z,10.60
2019-04-20T09:46:01.468Z,9.80
2019-04-20T09:49:12.897Z,9.33
2019-04-20T09:52:25.419Z,9.60
2019-04-20T09:55:30.711Z,9.43
2019-04-20T09:58:37.852Z,9.60
2019-04-20T10:01:39.779Z,8.53
2019-04-20T10:04:35.976Z,8.47
2019-04-20T10:07:43.491Z,8.33
2019-04-20T10:10:49.439Z,9.07
2019-04-20T10:13:54.783Z,10.20
2019-04-20T10:17:00.091Z,7.57
2019-04-20T10:20:10.853Z,10.17
2019-04-20T10:23:12.853Z,11.57
2019-04-20T10:26:18.671Z,8.53
2019-04-20T10:29:23.984Z,8.77
2019-04-20T10:32:34.242Z,9.70
2019-04-20T10:35:35.903Z,8.83
2019-04-20T10:38:42.174Z,9.10
2019-04-20T10:41:53.795Z,8.87
2019-04-20T10:44:57.108Z,9.60
2019-04-20T10:48:01.168Z,8.90
2019-04-20T10:51:08.257Z,9.57
2019-04-20T10:54:14.142Z,8.80
2019-04-20T10:57:19.539Z,9.20
2019-04-20T11:00:42.084Z,9.03
2019-04-20T11:03:47.063Z,8.53
2019-04-20T11:06:52.455Z,9.67
2019-04-20T11:10:07.905Z,9.80
2019-04-20T11:13:05.381Z,9.87
2019-04-20T11:16:10.849Z,9.00
2019-04-20T11:19:15.856Z,9.17
2019-04-20T11:22:22.155Z,8.37
2019-04-20T11:25:30.660Z,8.30
2019-04-20T11:28:36.188Z,10.20
2019-04-20T11:31:46.446Z,9.50
2019-04-20T11:34:49.192Z,9.27
2019-04-20T11:37:55.447Z,9.93
2019-04-20T11:41:10.167Z,8.37
2019-04-20T11:44:07.596Z,10.10
2019-04-20T11:47:12.830Z,8.53
2019-04-20T11:50:19.729Z,10.03
2019-04-20T11:53:26.678Z,11.40
2019-04-20T11:56:36.600Z,8.80
2019-04-20T11:59:39.092Z,8.40
2019-04-20T12:03:16.330Z,8.53
2019-04-20T12:06:14.850Z,9.67
2019-04-20T12:09:21.493Z,8.67
2019-04-20T12:12:34.937Z,8.90
2019-04-20T12:15:35.614Z,9.47
2019-04-20T12:18:40.461Z,8.00
2019-04-20T12:21:45.723Z,8.50
2019-04-20T12:24:51.935Z,8.50
2019-04-20T12:28:00.313Z,9.27
2019-04-20T12:31:11.912Z,9.03
2019-04-20T12:34:10.984Z,9.27
2019-04-20T12:37:16.048Z,9.33
2019-04-20T12:40:23.889Z,10.43
2019-04-20T12:43:29.846Z,10.57
2019-04-20T12:46:36.002Z,9.23
2019-04-20T12:49:41.407Z,9.50
2019-04-20T12:52:46.622Z,9.70
2019-04-20T12:55:52.691Z,9.27
2019-04-20T12:58:57.858Z,8.13
2019-04-20T13:02:02.957Z,7.53
2019-04-20T13:05:09.416Z,11.77
2019-04-20T13:08:21.808Z,7.63
2019-04-20T13:11:46.216Z,7.13
2019-04-20T13:15:24.594Z,7.70
2019-04-20T13:18:47.805Z,8.27
2019-04-20T13:21:52.833Z,8.40
2019-04-20T13:24:58.891Z,7.10
2019-04-20T13:28:05.104Z,7.20
2019-04-20T13:31:11.539Z,7.97
2019-04-20T13:34:17.296Z,7.57
2019-04-20T13:37:22.332Z,8.50
2019-04-20T13:40:27.976Z,7.47
2019-04-20T13:43:33.207Z,11.13
2019-04-20T13:46:38.848Z,8.57
2019-04-20T13:49:45.175Z,7.20
2019-04-20T13:52:51.037Z,7.30
2019-04-20T13:55:56.287Z,8.03
2019-04-20T13:59:12.850Z,6.97
2019-04-20T14:02:33.524Z,7.40
2019-04-20T14:05:40.475Z,6.00
2019-04-20T14:08:45.735Z,6.43
2019-04-20T14:11:51.767Z,7.43
2019-04-20T14:14:57.343Z,6.60
2019-04-20T14:18:02.591Z,7.20
2019-04-20T14:21:08.014Z,7.43
2019-04-20T14:24:13.183Z,6.57
2019-04-20T14:27:19.033Z,6.20
2019-04-20T14:30:24.790Z,6.13
2019-04-20T14:33:30.725Z,9.10
2019-04-20T14:36:37.030Z,5.40
2019-04-20T14:39:42.556Z,6.53
2019-04-20T14:42:51.359Z,6.33
2019-04-20T14:45:54.594Z,6.93
2019-04-20T14:49:00.747Z,6.30
2019-04-20T14:52:06.350Z,5.60
2019-04-20T14:55:13.743Z,6.87
2019-04-20T14:58:39.419Z,6.13
2019-04-20T15:01:50.389Z,5.80
2019-04-20T15:04:55.490Z,6.13
2019-04-20T15:08:02.749Z,5.37
2019-04-20T15:11:09.124Z,6.10
2019-04-20T15:14:14.640Z,5.73
2019-04-20T15:17:31.081Z,5.97
2019-04-20T15:20:39.545Z,6.00
2019-04-20T15:23:45.640Z,8.47
2019-04-20T15:26:52.087Z,6.37
2019-04-20T15:29:58.124Z,6.03
2019-04-20T15:33:05.053Z,6.23
2019-04-20T15:36:10.588Z,6.73
2019-04-20T15:39:16.859Z,5.50
2019-04-20T15:42:23.158Z,5.70
2019-04-20T15:45:29.429Z,7.57
2019-04-20T15:48:34.713Z,6.60
2019-04-20T15:51:39.848Z,7.50
2019-04-20T15:54:45.555Z,6.53
2019-04-20T15:57:50.814Z,6.27
2019-04-20T16:00:56.573Z,6.27
2019-04-20T16:04:29.325Z,6.70
2019-04-20T16:07:37.909Z,6.00
2019-04-20T16:10:37.263Z,7.60
2019-04-20T16:13:46.353Z,4.97
2019-04-20T16:16:48.954Z,5.80
2019-04-20T16:20:01.155Z,5.27
2019-04-20T16:23:00.729Z,6.50
2019-04-20T16:26:25.894Z,6.37
2019-04-20T16:29:31.449Z,5.67
2019-04-20T16:32:36.697Z,5.93
2019-04-20T16:35:42.539Z,6.33
2019-04-20T16:38:47.766Z,6.80
2019-04-20T16:41:53.966Z,5.93
2019-04-20T16:44:59.201Z,5.83
2019-04-20T16:48:05.485Z,6.67
2019-04-20T16:51:11.381Z,5.63
2019-04-20T16:54:17.557Z,5.53
2019-04-20T16:57:23.650Z,6.77
2019-04-20T17:00:29.455Z,5.50
2019-04-20T17:03:44.460Z,6.37
2019-04-20T17:06:46.191Z,5.97
2019-04-20T17:09:51.897Z,6.70
2019-04-20T17:12:57.761Z,6.70
2019-04-20T17:16:04.150Z,6.10
2019-04-20T17:19:09.995Z,6.73
2019-04-20T17:22:15.149Z,6.37
2019-04-20T17:25:20.144Z,7.47
2019-04-20T17:28:43.193Z,5.80
2019-04-20T17:32:23.226Z,7.87
2019-04-20T17:35:41.475Z,6.70
2019-04-20T17:38:41.738Z,7.90
2019-04-20T17:42:00.524Z,6.20
2019-04-20T17:44:58.721Z,7.40
2019-04-20T17:48:08.850Z,7.53
2019-04-20T17:51:23.771Z,7.17
2019-04-20T17:54:17.618Z,7.80
2019-04-20T17:57:23.499Z,6.40
2019-04-20T18:00:51.113Z,7.83
2019-04-20T18:04:18.730Z,7.90
2019-04-20T18:07:17.947Z,8.90
2019-04-20T18:10:29.014Z,7.27
2019-04-20T18:13:20.237Z,7.67
2019-04-20T18:16:46.556Z,9.30
2019-04-20T18:19:54.681Z,7.27
2019-04-20T18:23:00.541Z,8.17
2019-04-20T18:26:28.775Z,7.77
2019-04-20T18:29:37.288Z,7.00
2019-04-20T18:32:43.511Z,7.47
2019-04-20T18:35:49.492Z,7.90
2019-04-20T18:39:00.609Z,8.30
2019-04-20T18:42:10.055Z,10.63
2019-04-20T18:45:25.680Z,7.60
2019-04-20T18:48:39.295Z,8.90
2019-04-20T18:51:23.834Z,7.53
2019-04-20T18:54:34.745Z,8.03
2019-04-20T18:57:38.011Z,13.07
2019-04-20T19:00:50.163Z,10.13
2019-04-20T19:03:52.315Z,12.43
2019-04-20T19:06:57.708Z,10.30
2019-04-20T19:10:13.877Z,11.13
2019-04-20T19:13:22.357Z,9.73
2019-04-20T19:16:50.873Z,9.50
2019-04-20T19:19:53.041Z,12.57
2019-04-20T19:22:55.780Z,14.00
2019-04-20T19:26:08.313Z,14.90
2019-04-20T19:29:15.878Z,15.30
2019-04-20T19:32:30.580Z,14.17
2019-04-20T19:35:33.599Z,14.03
2019-04-20T19:38:37.944Z,14.00
2019-04-20T19:41:48.991Z,13.40
2019-04-20T19:44:57.682Z,11.90
2019-04-20T19:48:09.405Z,10.90
2019-04-20T19:51:25.489Z,9.53
2019-04-20T19:54:29.979Z,12.40
2019-04-20T19:57:32.267Z,11.43
2019-04-20T20:00:46.396Z,9.40
2019-04-20T20:03:56.291Z,9.97
2019-04-20T20:07:03.545Z,7.77
2019-04-20T20:10:07.641Z,7.30
2019-04-20T20:13:11.310Z,8.70
2019-04-20T20:16:27.251Z,9.83
2019-04-20T20:19:38.096Z,7.77
2019-04-20T20:22:37.817Z,7.90
2019-04-20T20:25:44.214Z,8.70
2019-04-20T20:28:52.897Z,8.70
2019-04-20T20:32:08.482Z,10.37
2019-04-20T20:35:05.875Z,14.40
2019-04-20T20:38:16.769Z,15.17
2019-04-20T20:41:20.583Z,11.80
2019-04-20T20:44:37.331Z,11.87
2019-04-20T20:48:01.880Z,9.80
2019-04-20T20:50:51.027Z,8.73
2019-04-20T20:53:51.216Z,9.63
2019-04-20T20:56:55.610Z,8.33
2019-04-20T21:00:02.354Z,9.63
2019-04-20T21:03:07.457Z,10.53
2019-04-20T21:06:09.697Z,10.10
2019-04-20T21:09:16.529Z,9.23
2019-04-20T21:12:23.185Z,9.67
2019-04-20T21:15:29.901Z,10.57
2019-04-20T21:18:52.570Z,8.40
2019-04-20T21:21:52.649Z,9.60
2019-04-20T21:24:51.491Z,9.43
2019-04-20T21:27:58.193Z,11.33
2019-04-20T21:31:08.093Z,8.73
2019-04-20T21:34:14.884Z,10.50
2019-04-20T21:37:20.096Z,10.23
2019-04-20T21:40:32.567Z,10.40
2019-04-20T21:43:36.329Z,10.50
2019-04-20T21:46:44.202Z,12.27
2019-04-20T21:49:54.082Z,11.27
2019-04-20T21:52:55.155Z,9.53
2019-04-20T21:55:59.689Z,8.70
2019-04-20T21:59:14.403Z,9.73
2019-04-20T22:02:19.556Z,8.70
2019-04-20T22:05:19.153Z,9.70
2019-04-20T22:08:28.397Z,10.40
2019-04-20T22:11:33.839Z,10.17
2019-04-20T22:14:39.869Z,10.40
2019-04-20T22:17:46.441Z,11.63
2019-04-20T22:21:04.592Z,10.80
2019-04-20T22:24:09.475Z,10.10
2019-04-20T22:27:12.716Z,9.23
2019-04-20T22:30:12.793Z,9.73
2019-04-20T22:33:35.027Z,9.17
2019-04-20T22:36:41.966Z,8.50
2019-04-20T22:39:54.039Z,10.50
2019-04-20T22:42:58.053Z,10.20
2019-04-20T22:46:03.305Z,8.60
2019-04-20T22:49:29.477Z,9.37
2019-04-20T22:52:32.102Z,8.53
2019-04-20T22:55:51.387Z,8.57
2019-04-20T22:58:40.617Z,9.13
2019-04-20T23:01:44.057Z,8.30
2019-04-20T23:04:42.690Z,9.73
2019-04-20T23:07:48.675Z,10.70
2019-04-20T23:10:53.830Z,10.20
2019-04-20T23:14:00.480Z,9.80
2019-04-20T23:17:06.385Z,10.67
2019-04-20T23:20:17.179Z,10.30
2019-04-20T23:23:22.429Z,9.97
2019-04-20T23:26:31.301Z,8.77
2019-04-20T23:29:37.650Z,9.63
2019-04-20T23:32:39.829Z,9.60
2019-04-20T23:35:50.762Z,10.17
2019-04-20T23:38:54.739Z,9.03
2019-04-20T23:42:02.528Z,10.50
2019-04-20T23:45:46.422Z,8.90
2019-04-20T23:49:18.740Z,9.83
2019-04-20T23:52:36.558Z,8.83
2019-04-20T23:55:21.404Z,10.20
2019-04-20T23:58:26.515Z,11.30
